»·PEaware :: N122KL L88-KSBP

N122KL :: L88-KSBP

FLIGHT INFORMATION

Flight Status: Arrived
Operator: Privately registered:
United States
More flights under this callsign
Pilot: Sebastien V. (19154)
Aircraft: CESSNA 172 SKYHAWK
(C172)
More flights by this aircraft type
Origin: L88 New Cuyama
United States
Destination: KSBP San Luis Co Regl
United States
More flights between these airports :: More routes between these airports
Route:
File this flight plan on PilotEdge
Remarks: Trying CAT 2
Altitude:
(Current/Filed)
6,500ft
Speed:
(Current/Filed)
115kts
Departed: 10-May-18 04:53 PM
Arrived: 10-May-18 05:31 PM
Distance/Time
Traveled:
50nm/0:38
Distance/Time
To Go:
Arrived

Flight Plot

Page will automatically refresh every two minutes.


Map Options




Map Legend


Flown Route
Filed Route
Departure Airport
Arrival Airport
Navaid (VOR, NDB)
Fix

Horizontal Profiles

Position Reports

Time Latitude Longitude Heading Altitude Ground
Speed
10-May-18 16:40 34.942417 -119.691215 128 2155ft 0kts
10-May-18 16:41 34.942417 -119.691215 128 2155ft 0kts
10-May-18 16:42 34.942417 -119.691215 128 2155ft 0kts
10-May-18 16:43 34.942417 -119.691215 128 2155ft 0kts
10-May-18 16:44 34.942417 -119.691215 128 2155ft 0kts
10-May-18 16:45 34.942417 -119.691215 128 2155ft 0kts
10-May-18 16:46 34.942417 -119.691215 128 2155ft 0kts
10-May-18 16:47 34.942417 -119.691215 128 2155ft 0kts
10-May-18 16:48 34.942417 -119.691215 128 2155ft 0kts
10-May-18 16:49 34.942417 -119.691215 128 2155ft 0kts
10-May-18 16:50 34.942417 -119.691215 128 2155ft 0kts
10-May-18 16:51 34.942417 -119.691215 128 2155ft 0kts
10-May-18 16:52 34.940000 -119.685661 116 2176ft 38kts
10-May-18 16:53 34.939035 -119.683461 296 2187ft 67kts
10-May-18 16:54 34.946231 -119.705713 288 3140ft 75kts
10-May-18 16:55 34.954633 -119.733070 290 4006ft 97kts
10-May-18 16:56 34.964849 -119.765287 290 4810ft 104kts
10-May-18 16:57 34.975179 -119.798053 290 5609ft 103kts
10-May-18 16:58 34.983354 -119.824074 290 6252ft 100kts
10-May-18 16:59 34.994490 -119.859358 290 6500ft 122kts
10-May-18 17:00 35.006532 -119.897503 290 6499ft 119kts
10-May-18 17:01 35.018401 -119.935375 290 6499ft 119kts
10-May-18 17:02 35.030336 -119.973623 290 6500ft 126kts
10-May-18 17:03 35.043113 -120.014551 290 6499ft 129kts
10-May-18 17:04 35.055998 -120.055840 290 6499ft 130kts
10-May-18 17:05 35.068855 -120.097099 290 6499ft 130kts
10-May-18 17:06 35.081665 -120.138265 290 6499ft 130kts
10-May-18 17:07 35.094289 -120.178835 290 6499ft 126kts
10-May-18 17:08 35.106682 -120.218753 290 6499ft 125kts
10-May-18 17:09 35.118984 -120.258453 290 6499ft 125kts
10-May-18 17:10 35.131298 -120.298243 290 6499ft 125kts
10-May-18 17:11 35.143605 -120.338066 290 6499ft 125kts
10-May-18 17:12 35.155879 -120.377832 290 6499ft 125kts
10-May-18 17:13 35.168144 -120.417629 290 6499ft 125kts
10-May-18 17:14 35.180362 -120.457324 290 6499ft 125kts
10-May-18 17:15 35.191500 -120.493216 291 5989ft 106kts
10-May-18 17:16 35.201818 -120.526706 291 4989ft 105kts
10-May-18 17:17 35.212027 -120.559988 291 3989ft 104kts
10-May-18 17:18 35.224680 -120.591544 303 2988ft 104kts
10-May-18 17:19 35.238883 -120.618759 301 2600ft 90kts
10-May-18 17:20 35.244173 -120.646831 228 2600ft 93kts
10-May-18 17:21 35.223692 -120.638768 131 2599ft 93kts
10-May-18 17:22 35.200533 -120.631996 182 2600ft 93kts
10-May-18 17:23 35.181511 -120.646821 282 2596ft 93kts
10-May-18 17:24 35.200076 -120.665930 345 2600ft 93kts
10-May-18 17:25 35.225228 -120.665845 29 2599ft 94kts
10-May-18 17:26 35.232783 -120.640569 127 2599ft 93kts
10-May-18 17:27 35.215134 -120.611804 127 1622ft 103kts
10-May-18 17:28 35.205001 -120.590454 73 1597ft 85kts
10-May-18 17:29 35.217714 -120.606250 299 1581ft 66kts
10-May-18 17:30 35.228400 -120.625748 307 660ft 66kts
10-May-18 17:31 35.236936 -120.639889 340 191ft 21kts
10-May-18 17:32 35.237455 -120.639902 12 191ft 0kts
10-May-18 17:33 35.237471 -120.638505 77 197ft 15kts
10-May-18 17:34 35.238250 -120.638156 351 198ft 0kts

Navigation Log

Ident Type
1. L88 Airport
2. KSBP Airport